Main page
METAR-TAF:

METAR-TAF

Airports :

Current weather observation

The report was made 1 hour and 4 minutes ago, at 08:00 UTC
Wind 9 kt from the North
Temperature 37°C
Humidity 22%
Pressure 1010 hPa
Visibility 10 km or more
no clouds below 1500 m and no cumulonimbus

METAR: OTBD 270800Z 36009KT CAVOK 37/12 Q1010 NOSIG

Time: 09:04 (09:04 UTC)

Forecast

The report was made 4 hours and 4 minutes ago, at 05:00 UTC
Forecast valid from 27 at 06 UTC to 28 at 12 UTC
Wind 12 kt from the Northeast
Visibility 10 km or more
no clouds below 1500 m and no cumulonimbus
Temporary
from 27 at 18 UTC to 28 at 08 UTC
Wind 6 kt from the West/Northwest

TAF: OTBD 270500Z 2706/2812 04012KT CAVOK TEMPO 2718/2808 30006KT

Weather observations and forecasts of more than 4000 airports (METAR and TAF reports).

The available stations are represented by yellow and red dots on the map.

Hover mouse over dot to see the name of the station.

Then click to see weather observations and forecasts.

To change the map : click on the green buttons with a black cross to zoom in, on the green button with a dash to zoom out, or on the green arrows for adjacent maps.


METAR-TAF: